sensor_id;sensor_type;location;lat;lon;timestamp;P1;durP1;ratioP1;P2;durP2;ratioP2
53654;SDS011;39558;52.028;8.536;2022-07-19T00:00:21;8.20;;;3.30;;
53654;SDS011;39558;52.028;8.536;2022-07-19T00:02:49;5.80;;;3.33;;
53654;SDS011;39558;52.028;8.536;2022-07-19T00:05:15;5.10;;;2.42;;
53654;SDS011;39558;52.028;8.536;2022-07-19T00:07:41;6.35;;;3.35;;
53654;SDS011;39558;52.028;8.536;2022-07-19T00:10:08;5.35;;;2.60;;
53654;SDS011;39558;52.028;8.536;2022-07-19T00:12:35;6.95;;;2.90;;
53654;SDS011;39558;52.028;8.536;2022-07-19T00:15:02;6.35;;;3.22;;
53654;SDS011;39558;52.028;8.536;2022-07-19T00:17:28;7.82;;;3.70;;
53654;SDS011;39558;52.028;8.536;2022-07-19T00:19:54;5.55;;;3.00;;
53654;SDS011;39558;52.028;8.536;2022-07-19T00:22:20;4.95;;;2.97;;
53654;SDS011;39558;52.028;8.536;2022-07-19T00:24:46;7.72;;;3.13;;
53654;SDS011;39558;52.028;8.536;2022-07-19T00:27:12;6.05;;;3.30;;
53654;SDS011;39558;52.028;8.536;2022-07-19T00:29:38;5.60;;;3.15;;
53654;SDS011;39558;52.028;8.536;2022-07-19T00:32:04;5.38;;;2.95;;
53654;SDS011;39558;52.028;8.536;2022-07-19T00:34:30;7.38;;;2.78;;
53654;SDS011;39558;52.028;8.536;2022-07-19T00:36:56;6.22;;;3.30;;
53654;SDS011;39558;52.028;8.536;2022-07-19T00:39:22;5.57;;;2.83;;
53654;SDS011;39558;52.028;8.536;2022-07-19T00:41:48;7.65;;;3.20;;
53654;SDS011;39558;52.028;8.536;2022-07-19T00:44:14;5.97;;;3.47;;
53654;SDS011;39558;52.028;8.536;2022-07-19T00:46:39;6.30;;;3.38;;
53654;SDS011;39558;52.028;8.536;2022-07-19T00:49:05;5.88;;;2.88;;
53654;SDS011;39558;52.028;8.536;2022-07-19T00:51:35;6.75;;;3.67;;
53654;SDS011;39558;52.028;8.536;2022-07-19T00:54:04;5.45;;;2.75;;
53654;SDS011;39558;52.028;8.536;2022-07-19T00:56:32;6.63;;;3.47;;
53654;SDS011;39558;52.028;8.536;2022-07-19T00:58:59;6.22;;;3.50;;
53654;SDS011;39558;52.028;8.536;2022-07-19T01:01:25;6.45;;;3.20;;
53654;SDS011;39558;52.028;8.536;2022-07-19T01:03:51;6.25;;;3.15;;
53654;SDS011;39558;52.028;8.536;2022-07-19T01:06:18;6.35;;;3.40;;
53654;SDS011;39558;52.028;8.536;2022-07-19T01:08:44;8.52;;;3.40;;
53654;SDS011;39558;52.028;8.536;2022-07-19T01:11:09;5.10;;;3.10;;
53654;SDS011;39558;52.028;8.536;2022-07-19T01:13:35;5.68;;;2.83;;
53654;SDS011;39558;52.028;8.536;2022-07-19T01:16:01;6.68;;;3.90;;
53654;SDS011;39558;52.028;8.536;2022-07-19T01:18:27;5.50;;;3.20;;
53654;SDS011;39558;52.028;8.536;2022-07-19T01:20:53;5.57;;;3.00;;
53654;SDS011;39558;52.028;8.536;2022-07-19T01:23:19;6.43;;;3.78;;
53654;SDS011;39558;52.028;8.536;2022-07-19T01:25:45;5.40;;;3.33;;
53654;SDS011;39558;52.028;8.536;2022-07-19T01:28:11;6.28;;;3.30;;
53654;SDS011;39558;52.028;8.536;2022-07-19T01:30:37;7.18;;;3.28;;
53654;SDS011;39558;52.028;8.536;2022-07-19T01:33:03;6.53;;;3.25;;
53654;SDS011;39558;52.028;8.536;2022-07-19T01:35:29;5.70;;;3.13;;
53654;SDS011;39558;52.028;8.536;2022-07-19T01:37:55;6.95;;;3.13;;
53654;SDS011;39558;52.028;8.536;2022-07-19T01:40:21;7.18;;;3.22;;
53654;SDS011;39558;52.028;8.536;2022-07-19T01:42:47;5.18;;;3.58;;
53654;SDS011;39558;52.028;8.536;2022-07-19T01:45:15;7.50;;;2.92;;
53654;SDS011;39558;52.028;8.536;2022-07-19T01:47:41;6.10;;;3.53;;
53654;SDS011;39558;52.028;8.536;2022-07-19T01:50:07;6.97;;;3.20;;
53654;SDS011;39558;52.028;8.536;2022-07-19T01:52:33;5.75;;;3.25;;
53654;SDS011;39558;52.028;8.536;2022-07-19T01:54:59;4.90;;;2.97;;
53654;SDS011;39558;52.028;8.536;2022-07-19T01:57:25;5.40;;;3.13;;
53654;SDS011;39558;52.028;8.536;2022-07-19T01:59:53;6.63;;;3.38;;
53654;SDS011;39558;52.028;8.536;2022-07-19T02:02:19;6.93;;;3.25;;
53654;SDS011;39558;52.028;8.536;2022-07-19T02:04:45;5.30;;;2.83;;
53654;SDS011;39558;52.028;8.536;2022-07-19T02:07:11;7.72;;;3.53;;
53654;SDS011;39558;52.028;8.536;2022-07-19T02:09:36;5.50;;;3.05;;
53654;SDS011;39558;52.028;8.536;2022-07-19T02:12:02;5.93;;;3.25;;
53654;SDS011;39558;52.028;8.536;2022-07-19T02:14:28;6.15;;;3.58;;
53654;SDS011;39558;52.028;8.536;2022-07-19T02:16:54;5.53;;;3.08;;
53654;SDS011;39558;52.028;8.536;2022-07-19T02:19:20;6.22;;;3.40;;
53654;SDS011;39558;52.028;8.536;2022-07-19T02:21:46;6.05;;;3.33;;
53654;SDS011;39558;52.028;8.536;2022-07-19T02:24:12;6.18;;;2.97;;
53654;SDS011;39558;52.028;8.536;2022-07-19T02:26:39;7.88;;;3.72;;
53654;SDS011;39558;52.028;8.536;2022-07-19T02:29:05;7.65;;;3.20;;
53654;SDS011;39558;52.028;8.536;2022-07-19T02:31:31;6.90;;;3.92;;
53654;SDS011;39558;52.028;8.536;2022-07-19T02:33:57;4.97;;;2.85;;
53654;SDS011;39558;52.028;8.536;2022-07-19T02:36:22;7.07;;;3.30;;
53654;SDS011;39558;52.028;8.536;2022-07-19T02:38:48;5.88;;;3.00;;
53654;SDS011;39558;52.028;8.536;2022-07-19T02:41:14;5.85;;;3.00;;
53654;SDS011;39558;52.028;8.536;2022-07-19T02:43:41;5.95;;;2.80;;
53654;SDS011;39558;52.028;8.536;2022-07-19T02:46:07;5.10;;;2.90;;
53654;SDS011;39558;52.028;8.536;2022-07-19T02:48:33;4.68;;;2.55;;
53654;SDS011;39558;52.028;8.536;2022-07-19T02:50:59;6.00;;;3.05;;
53654;SDS011;39558;52.028;8.536;2022-07-19T02:53:25;5.88;;;2.90;;
53654;SDS011;39558;52.028;8.536;2022-07-19T02:55:51;5.95;;;3.55;;
53654;SDS011;39558;52.028;8.536;2022-07-19T02:58:17;5.47;;;2.88;;
53654;SDS011;39558;52.028;8.536;2022-07-19T03:00:43;5.20;;;2.70;;
53654;SDS011;39558;52.028;8.536;2022-07-19T03:03:09;7.20;;;2.70;;
53654;SDS011;39558;52.028;8.536;2022-07-19T03:05:54;4.82;;;2.72;;
53654;SDS011;39558;52.028;8.536;2022-07-19T03:08:20;5.70;;;3.10;;
53654;SDS011;39558;52.028;8.536;2022-07-19T03:10:46;6.75;;;3.00;;
53654;SDS011;39558;52.028;8.536;2022-07-19T03:13:12;5.75;;;3.20;;
53654;SDS011;39558;52.028;8.536;2022-07-19T03:15:38;4.63;;;2.60;;
53654;SDS011;39558;52.028;8.536;2022-07-19T03:18:04;10.40;;;3.85;;
53654;SDS011;39558;52.028;8.536;2022-07-19T03:20:31;5.22;;;2.85;;
53654;SDS011;39558;52.028;8.536;2022-07-19T03:22:57;4.78;;;2.95;;
53654;SDS011;39558;52.028;8.536;2022-07-19T03:25:23;7.72;;;3.05;;
53654;SDS011;39558;52.028;8.536;2022-07-19T03:27:49;4.80;;;2.40;;
53654;SDS011;39558;52.028;8.536;2022-07-19T03:30:14;5.18;;;3.13;;
53654;SDS011;39558;52.028;8.536;2022-07-19T03:32:40;6.53;;;2.50;;
53654;SDS011;39558;52.028;8.536;2022-07-19T03:35:06;4.85;;;2.40;;
53654;SDS011;39558;52.028;8.536;2022-07-19T03:37:32;6.22;;;3.10;;
53654;SDS011;39558;52.028;8.536;2022-07-19T03:39:58;5.57;;;2.85;;
53654;SDS011;39558;52.028;8.536;2022-07-19T03:42:24;5.43;;;3.28;;
53654;SDS011;39558;52.028;8.536;2022-07-19T03:44:50;4.72;;;2.50;;
53654;SDS011;39558;52.028;8.536;2022-07-19T03:47:16;7.28;;;2.85;;
53654;SDS011;39558;52.028;8.536;2022-07-19T03:49:42;5.63;;;2.80;;
53654;SDS011;39558;52.028;8.536;2022-07-19T03:52:08;6.18;;;3.30;;
53654;SDS011;39558;52.028;8.536;2022-07-19T03:54:34;5.35;;;2.65;;
53654;SDS011;39558;52.028;8.536;2022-07-19T03:56:59;5.22;;;2.83;;
53654;SDS011;39558;52.028;8.536;2022-07-19T03:59:25;6.30;;;2.75;;
53654;SDS011;39558;52.028;8.536;2022-07-19T04:01:51;5.13;;;2.97;;
53654;SDS011;39558;52.028;8.536;2022-07-19T04:04:17;5.28;;;2.72;;
53654;SDS011;39558;52.028;8.536;2022-07-19T04:06:43;5.25;;;2.60;;
53654;SDS011;39558;52.028;8.536;2022-07-19T04:09:09;5.40;;;2.88;;
53654;SDS011;39558;52.028;8.536;2022-07-19T04:11:35;5.70;;;3.00;;
53654;SDS011;39558;52.028;8.536;2022-07-19T04:14:01;6.25;;;2.72;;
53654;SDS011;39558;52.028;8.536;2022-07-19T04:16:27;6.43;;;2.97;;
53654;SDS011;39558;52.028;8.536;2022-07-19T04:18:53;6.43;;;2.88;;
53654;SDS011;39558;52.028;8.536;2022-07-19T04:21:19;5.30;;;2.47;;
53654;SDS011;39558;52.028;8.536;2022-07-19T04:23:45;3.80;;;2.42;;
53654;SDS011;39558;52.028;8.536;2022-07-19T04:26:11;6.70;;;2.88;;
53654;SDS011;39558;52.028;8.536;2022-07-19T04:28:37;5.68;;;2.70;;
53654;SDS011;39558;52.028;8.536;2022-07-19T04:31:03;6.22;;;3.00;;
53654;SDS011;39558;52.028;8.536;2022-07-19T04:33:29;4.00;;;2.45;;
53654;SDS011;39558;52.028;8.536;2022-07-19T04:35:55;5.45;;;2.83;;
53654;SDS011;39558;52.028;8.536;2022-07-19T04:38:21;6.57;;;2.75;;
53654;SDS011;39558;52.028;8.536;2022-07-19T04:40:48;4.38;;;2.35;;
53654;SDS011;39558;52.028;8.536;2022-07-19T04:43:15;4.07;;;2.40;;
53654;SDS011;39558;52.028;8.536;2022-07-19T04:45:41;4.53;;;2.67;;
53654;SDS011;39558;52.028;8.536;2022-07-19T04:48:09;4.55;;;2.45;;
53654;SDS011;39558;52.028;8.536;2022-07-19T04:50:35;3.80;;;2.20;;
53654;SDS011;39558;52.028;8.536;2022-07-19T04:53:01;4.07;;;2.33;;
53654;SDS011;39558;52.028;8.536;2022-07-19T04:55:27;4.38;;;2.35;;
53654;SDS011;39558;52.028;8.536;2022-07-19T04:57:53;5.50;;;2.40;;
53654;SDS011;39558;52.028;8.536;2022-07-19T05:00:19;5.60;;;2.50;;
53654;SDS011;39558;52.028;8.536;2022-07-19T05:02:45;4.13;;;2.10;;
53654;SDS011;39558;52.028;8.536;2022-07-19T05:05:11;5.47;;;2.33;;
53654;SDS011;39558;52.028;8.536;2022-07-19T05:07:37;4.13;;;2.05;;
53654;SDS011;39558;52.028;8.536;2022-07-19T05:10:03;4.63;;;2.45;;
53654;SDS011;39558;52.028;8.536;2022-07-19T05:12:30;5.47;;;2.40;;
53654;SDS011;39558;52.028;8.536;2022-07-19T05:14:56;4.88;;;2.38;;
53654;SDS011;39558;52.028;8.536;2022-07-19T05:17:23;4.75;;;2.20;;
53654;SDS011;39558;52.028;8.536;2022-07-19T05:19:49;4.63;;;1.95;;
53654;SDS011;39558;52.028;8.536;2022-07-19T05:22:15;4.78;;;2.40;;
53654;SDS011;39558;52.028;8.536;2022-07-19T05:24:41;4.43;;;2.30;;
53654;SDS011;39558;52.028;8.536;2022-07-19T05:27:07;4.18;;;2.30;;
53654;SDS011;39558;52.028;8.536;2022-07-19T05:29:32;4.32;;;2.40;;
53654;SDS011;39558;52.028;8.536;2022-07-19T05:31:58;4.30;;;2.20;;
53654;SDS011;39558;52.028;8.536;2022-07-19T05:34:24;5.10;;;2.65;;
53654;SDS011;39558;52.028;8.536;2022-07-19T05:36:50;6.90;;;2.38;;
53654;SDS011;39558;52.028;8.536;2022-07-19T05:39:16;4.90;;;2.30;;
53654;SDS011;39558;52.028;8.536;2022-07-19T05:41:42;6.25;;;2.83;;
53654;SDS011;39558;52.028;8.536;2022-07-19T05:44:09;4.93;;;2.47;;
53654;SDS011;39558;52.028;8.536;2022-07-19T05:46:35;5.85;;;2.33;;
53654;SDS011;39558;52.028;8.536;2022-07-19T05:49:05;4.63;;;2.20;;
53654;SDS011;39558;52.028;8.536;2022-07-19T05:51:31;7.28;;;2.47;;
53654;SDS011;39558;52.028;8.536;2022-07-19T05:53:57;4.75;;;2.80;;
53654;SDS011;39558;52.028;8.536;2022-07-19T05:56:25;4.15;;;2.38;;
53654;SDS011;39558;52.028;8.536;2022-07-19T05:58:51;5.68;;;2.75;;
53654;SDS011;39558;52.028;8.536;2022-07-19T06:01:17;8.00;;;2.38;;
53654;SDS011;39558;52.028;8.536;2022-07-19T06:03:43;6.35;;;2.47;;
53654;SDS011;39558;52.028;8.536;2022-07-19T06:06:09;4.63;;;2.05;;
53654;SDS011;39558;52.028;8.536;2022-07-19T06:08:35;4.65;;;2.20;;
53654;SDS011;39558;52.028;8.536;2022-07-19T06:11:01;3.67;;;1.98;;
53654;SDS011;39558;52.028;8.536;2022-07-19T06:13:27;9.75;;;2.30;;
53654;SDS011;39558;52.028;8.536;2022-07-19T06:15:53;3.92;;;2.28;;
53654;SDS011;39558;52.028;8.536;2022-07-19T06:18:19;4.43;;;2.22;;
53654;SDS011;39558;52.028;8.536;2022-07-19T06:20:45;4.10;;;2.13;;
53654;SDS011;39558;52.028;8.536;2022-07-19T06:23:10;5.85;;;2.70;;
53654;SDS011;39558;52.028;8.536;2022-07-19T06:25:36;11.18;;;2.30;;
53654;SDS011;39558;52.028;8.536;2022-07-19T06:28:02;9.35;;;2.30;;
53654;SDS011;39558;52.028;8.536;2022-07-19T06:30:28;4.18;;;1.92;;
53654;SDS011;39558;52.028;8.536;2022-07-19T06:32:54;4.60;;;1.95;;
53654;SDS011;39558;52.028;8.536;2022-07-19T06:35:20;7.55;;;2.95;;
53654;SDS011;39558;52.028;8.536;2022-07-19T06:37:46;4.97;;;2.28;;
53654;SDS011;39558;52.028;8.536;2022-07-19T06:40:12;6.45;;;2.20;;
53654;SDS011;39558;52.028;8.536;2022-07-19T06:42:38;4.25;;;1.90;;
53654;SDS011;39558;52.028;8.536;2022-07-19T06:45:04;5.18;;;2.47;;
53654;SDS011;39558;52.028;8.536;2022-07-19T06:47:31;5.13;;;2.15;;
53654;SDS011;39558;52.028;8.536;2022-07-19T06:50:00;3.60;;;1.50;;
53654;SDS011;39558;52.028;8.536;2022-07-19T06:52:26;4.22;;;1.10;;
53654;SDS011;39558;52.028;8.536;2022-07-19T06:54:52;5.65;;;2.05;;
53654;SDS011;39558;52.028;8.536;2022-07-19T06:57:17;5.60;;;1.88;;
53654;SDS011;39558;52.028;8.536;2022-07-19T06:59:43;4.53;;;1.95;;
53654;SDS011;39558;52.028;8.536;2022-07-19T07:02:09;8.65;;;2.58;;
53654;SDS011;39558;52.028;8.536;2022-07-19T07:04:35;20.75;;;2.25;;
53654;SDS011;39558;52.028;8.536;2022-07-19T07:07:01;7.32;;;1.65;;
53654;SDS011;39558;52.028;8.536;2022-07-19T07:09:27;10.02;;;1.90;;
53654;SDS011;39558;52.028;8.536;2022-07-19T07:11:53;9.25;;;2.13;;
53654;SDS011;39558;52.028;8.536;2022-07-19T07:14:19;4.13;;;1.83;;
53654;SDS011;39558;52.028;8.536;2022-07-19T07:16:45;6.90;;;2.13;;
53654;SDS011;39558;52.028;8.536;2022-07-19T07:19:10;4.35;;;1.30;;
53654;SDS011;39558;52.028;8.536;2022-07-19T07:21:36;3.08;;;1.05;;
53654;SDS011;39558;52.028;8.536;2022-07-19T07:24:03;4.97;;;1.70;;
53654;SDS011;39558;52.028;8.536;2022-07-19T07:26:29;4.07;;;1.80;;
53654;SDS011;39558;52.028;8.536;2022-07-19T07:28:55;9.25;;;2.25;;
53654;SDS011;39558;52.028;8.536;2022-07-19T07:31:21;5.10;;;1.55;;
53654;SDS011;39558;52.028;8.536;2022-07-19T07:33:47;5.32;;;1.75;;
53654;SDS011;39558;52.028;8.536;2022-07-19T07:36:13;4.32;;;1.52;;
53654;SDS011;39558;52.028;8.536;2022-07-19T07:38:39;7.00;;;1.52;;
53654;SDS011;39558;52.028;8.536;2022-07-19T07:41:05;9.48;;;2.25;;
53654;SDS011;39558;52.028;8.536;2022-07-19T07:43:31;6.10;;;1.77;;
53654;SDS011;39558;52.028;8.536;2022-07-19T07:45:57;3.70;;;1.50;;
53654;SDS011;39558;52.028;8.536;2022-07-19T07:48:23;5.25;;;1.45;;
53654;SDS011;39558;52.028;8.536;2022-07-19T07:50:49;7.13;;;2.00;;
53654;SDS011;39558;52.028;8.536;2022-07-19T07:53:15;11.68;;;2.30;;
53654;SDS011;39558;52.028;8.536;2022-07-19T07:55:41;4.22;;;1.83;;
53654;SDS011;39558;52.028;8.536;2022-07-19T07:58:07;6.35;;;1.45;;
53654;SDS011;39558;52.028;8.536;2022-07-19T08:00:34;3.45;;;1.35;;
53654;SDS011;39558;52.028;8.536;2022-07-19T08:03:00;4.72;;;1.77;;
53654;SDS011;39558;52.028;8.536;2022-07-19T08:05:25;4.65;;;1.45;;
53654;SDS011;39558;52.028;8.536;2022-07-19T08:07:51;10.57;;;1.95;;
53654;SDS011;39558;52.028;8.536;2022-07-19T08:10:18;7.43;;;1.52;;
53654;SDS011;39558;52.028;8.536;2022-07-19T08:12:45;6.60;;;1.48;;
53654;SDS011;39558;52.028;8.536;2022-07-19T08:15:11;12.40;;;2.00;;
53654;SDS011;39558;52.028;8.536;2022-07-19T08:17:36;5.65;;;1.77;;
53654;SDS011;39558;52.028;8.536;2022-07-19T08:20:02;9.25;;;2.65;;
53654;SDS011;39558;52.028;8.536;2022-07-19T08:22:28;4.53;;;2.05;;
53654;SDS011;39558;52.028;8.536;2022-07-19T08:24:54;7.43;;;1.58;;
53654;SDS011;39558;52.028;8.536;2022-07-19T08:27:20;3.47;;;1.65;;
53654;SDS011;39558;52.028;8.536;2022-07-19T08:29:46;5.60;;;1.83;;
53654;SDS011;39558;52.028;8.536;2022-07-19T08:32:12;7.30;;;2.10;;
53654;SDS011;39558;52.028;8.536;2022-07-19T08:34:38;7.32;;;1.67;;
53654;SDS011;39558;52.028;8.536;2022-07-19T08:37:04;5.80;;;1.20;;
53654;SDS011;39558;52.028;8.536;2022-07-19T08:39:30;6.13;;;2.13;;
53654;SDS011;39558;52.028;8.536;2022-07-19T08:41:56;7.43;;;2.40;;
53654;SDS011;39558;52.028;8.536;2022-07-19T08:44:22;5.45;;;1.40;;
53654;SDS011;39558;52.028;8.536;2022-07-19T08:46:48;13.93;;;1.92;;
53654;SDS011;39558;52.028;8.536;2022-07-19T08:49:14;3.58;;;1.40;;
53654;SDS011;39558;52.028;8.536;2022-07-19T08:51:43;7.55;;;1.33;;
53654;SDS011;39558;52.028;8.536;2022-07-19T08:54:09;5.35;;;1.95;;
53654;SDS011;39558;52.028;8.536;2022-07-19T08:56:35;7.60;;;1.70;;
53654;SDS011;39558;52.028;8.536;2022-07-19T08:59:21;7.22;;;2.67;;
53654;SDS011;39558;52.028;8.536;2022-07-19T09:01:48;5.00;;;1.92;;
53654;SDS011;39558;52.028;8.536;2022-07-19T09:04:17;6.70;;;1.83;;
53654;SDS011;39558;52.028;8.536;2022-07-19T09:09:10;2.53;;;1.27;;
53654;SDS011;39558;52.028;8.536;2022-07-19T09:11:38;4.45;;;1.27;;
53654;SDS011;39558;52.028;8.536;2022-07-19T09:14:06;3.78;;;1.60;;
53654;SDS011;39558;52.028;8.536;2022-07-19T09:19:13;3.92;;;1.45;;
53654;SDS011;39558;52.028;8.536;2022-07-19T09:22:02;2.58;;;1.23;;
53654;SDS011;39558;52.028;8.536;2022-07-19T09:24:26;2.45;;;1.20;;
53654;SDS011;39558;52.028;8.536;2022-07-19T09:26:53;6.05;;;1.20;;
53654;SDS011;39558;52.028;8.536;2022-07-19T09:29:20;3.97;;;1.77;;
53654;SDS011;39558;52.028;8.536;2022-07-19T09:31:59;2.40;;;1.27;;
53654;SDS011;39558;52.028;8.536;2022-07-19T09:34:32;3.95;;;1.90;;
53654;SDS011;39558;52.028;8.536;2022-07-19T09:37:08;4.82;;;1.23;;
53654;SDS011;39558;52.028;8.536;2022-07-19T09:39:34;4.05;;;1.50;;
53654;SDS011;39558;52.028;8.536;2022-07-19T09:42:00;2.08;;;1.05;;
53654;SDS011;39558;52.028;8.536;2022-07-19T09:44:29;3.70;;;1.10;;
53654;SDS011;39558;52.028;8.536;2022-07-19T09:46:55;3.75;;;1.40;;
53654;SDS011;39558;52.028;8.536;2022-07-19T09:49:21;3.28;;;1.20;;
53654;SDS011;39558;52.028;8.536;2022-07-19T09:51:48;6.78;;;1.67;;
53654;SDS011;39558;52.028;8.536;2022-07-19T09:54:15;4.47;;;2.13;;
53654;SDS011;39558;52.028;8.536;2022-07-19T09:56:42;6.80;;;1.30;;
53654;SDS011;39558;52.028;8.536;2022-07-19T09:59:09;8.00;;;1.95;;
53654;SDS011;39558;52.028;8.536;2022-07-19T10:01:35;8.98;;;1.88;;
53654;SDS011;39558;52.028;8.536;2022-07-19T10:04:15;4.07;;;1.35;;
53654;SDS011;39558;52.028;8.536;2022-07-19T10:06:41;8.23;;;1.42;;
53654;SDS011;39558;52.028;8.536;2022-07-19T10:09:08;2.70;;;1.27;;
53654;SDS011;39558;52.028;8.536;2022-07-19T10:11:34;4.65;;;1.98;;
53654;SDS011;39558;52.028;8.536;2022-07-19T10:14:01;2.78;;;1.35;;
53654;SDS011;39558;52.028;8.536;2022-07-19T10:16:34;3.47;;;1.92;;
53654;SDS011;39558;52.028;8.536;2022-07-19T10:21:28;3.90;;;1.50;;
53654;SDS011;39558;52.028;8.536;2022-07-19T10:23:54;6.70;;;1.80;;
53654;SDS011;39558;52.028;8.536;2022-07-19T10:26:33;3.40;;;1.40;;
53654;SDS011;39558;52.028;8.536;2022-07-19T10:29:06;2.22;;;1.10;;
53654;SDS011;39558;52.028;8.536;2022-07-19T10:31:33;3.10;;;1.33;;
53654;SDS011;39558;52.028;8.536;2022-07-19T10:34:04;4.18;;;1.20;;
53654;SDS011;39558;52.028;8.536;2022-07-19T10:36:32;5.85;;;1.35;;
53654;SDS011;39558;52.028;8.536;2022-07-19T10:44:27;3.22;;;1.40;;
53654;SDS011;39558;52.028;8.536;2022-07-19T10:46:53;2.42;;;0.93;;
53654;SDS011;39558;52.028;8.536;2022-07-19T10:55:13;4.00;;;1.02;;
53654;SDS011;39558;52.028;8.536;2022-07-19T10:57:35;4.70;;;1.17;;
53654;SDS011;39558;52.028;8.536;2022-07-19T11:00:02;2.90;;;1.23;;
53654;SDS011;39558;52.028;8.536;2022-07-19T11:02:41;3.97;;;0.88;;
53654;SDS011;39558;52.028;8.536;2022-07-19T11:05:06;4.28;;;0.90;;
53654;SDS011;39558;52.028;8.536;2022-07-19T11:07:33;2.05;;;0.90;;
53654;SDS011;39558;52.028;8.536;2022-07-19T11:09:59;2.25;;;0.95;;
53654;SDS011;39558;52.028;8.536;2022-07-19T11:12:28;2.47;;;1.00;;
53654;SDS011;39558;52.028;8.536;2022-07-19T11:14:55;1.35;;;0.85;;
53654;SDS011;39558;52.028;8.536;2022-07-19T11:17:21;2.00;;;0.80;;
53654;SDS011;39558;52.028;8.536;2022-07-19T11:20:01;1.60;;;0.93;;
53654;SDS011;39558;52.028;8.536;2022-07-19T11:22:32;2.00;;;0.98;;
53654;SDS011;39558;52.028;8.536;2022-07-19T11:24:58;2.78;;;1.27;;
53654;SDS011;39558;52.028;8.536;2022-07-19T11:27:23;2.38;;;0.90;;
53654;SDS011;39558;52.028;8.536;2022-07-19T11:29:56;2.83;;;0.90;;
53654;SDS011;39558;52.028;8.536;2022-07-19T11:32:22;2.47;;;1.10;;
53654;SDS011;39558;52.028;8.536;2022-07-19T11:34:55;5.32;;;0.95;;
53654;SDS011;39558;52.028;8.536;2022-07-19T11:37:22;1.98;;;0.98;;
53654;SDS011;39558;52.028;8.536;2022-07-19T11:39:48;3.25;;;1.00;;
53654;SDS011;39558;52.028;8.536;2022-07-19T11:42:30;2.45;;;1.08;;
53654;SDS011;39558;52.028;8.536;2022-07-19T11:44:57;1.40;;;0.85;;
53654;SDS011;39558;52.028;8.536;2022-07-19T11:47:23;2.50;;;1.10;;
53654;SDS011;39558;52.028;8.536;2022-07-19T11:49:49;1.60;;;0.75;;
53654;SDS011;39558;52.028;8.536;2022-07-19T11:52:14;3.15;;;1.00;;
53654;SDS011;39558;52.028;8.536;2022-07-19T11:54:40;2.97;;;1.35;;
53654;SDS011;39558;52.028;8.536;2022-07-19T11:57:22;2.38;;;1.02;;
53654;SDS011;39558;52.028;8.536;2022-07-19T11:59:48;2.88;;;1.10;;
53654;SDS011;39558;52.028;8.536;2022-07-19T12:02:14;2.60;;;1.00;;
53654;SDS011;39558;52.028;8.536;2022-07-19T12:04:40;3.20;;;0.93;;
53654;SDS011;39558;52.028;8.536;2022-07-19T12:07:06;2.25;;;0.88;;
53654;SDS011;39558;52.028;8.536;2022-07-19T12:09:32;3.03;;;0.90;;
53654;SDS011;39558;52.028;8.536;2022-07-19T12:11:59;2.20;;;0.93;;
53654;SDS011;39558;52.028;8.536;2022-07-19T12:14:26;3.70;;;1.00;;
53654;SDS011;39558;52.028;8.536;2022-07-19T12:17:08;2.22;;;0.70;;
53654;SDS011;39558;52.028;8.536;2022-07-19T12:19:34;1.85;;;0.63;;
53654;SDS011;39558;52.028;8.536;2022-07-19T12:22:00;4.35;;;1.10;;
53654;SDS011;39558;52.028;8.536;2022-07-19T12:24:27;5.80;;;1.10;;
53654;SDS011;39558;52.028;8.536;2022-07-19T12:26:55;1.85;;;1.00;;
53654;SDS011;39558;52.028;8.536;2022-07-19T12:29:23;5.85;;;1.00;;
53654;SDS011;39558;52.028;8.536;2022-07-19T12:31:50;4.65;;;1.40;;
53654;SDS011;39558;52.028;8.536;2022-07-19T12:34:16;1.50;;;0.90;;
53654;SDS011;39558;52.028;8.536;2022-07-19T12:36:43;2.92;;;1.17;;
53654;SDS011;39558;52.028;8.536;2022-07-19T12:39:19;3.35;;;1.27;;
53654;SDS011;39558;52.028;8.536;2022-07-19T12:41:52;2.25;;;1.17;;
53654;SDS011;39558;52.028;8.536;2022-07-19T12:44:18;4.75;;;0.88;;
53654;SDS011;39558;52.028;8.536;2022-07-19T12:46:44;1.35;;;0.80;;
53654;SDS011;39558;52.028;8.536;2022-07-19T12:49:10;3.03;;;1.13;;
53654;SDS011;39558;52.028;8.536;2022-07-19T12:51:36;2.30;;;1.15;;
53654;SDS011;39558;52.028;8.536;2022-07-19T12:54:07;4.07;;;1.52;;
53654;SDS011;39558;52.028;8.536;2022-07-19T12:56:33;1.95;;;1.08;;
53654;SDS011;39558;52.028;8.536;2022-07-19T12:58:59;3.78;;;1.33;;
53654;SDS011;39558;52.028;8.536;2022-07-19T13:01:43;4.13;;;1.83;;
53654;SDS011;39558;52.028;8.536;2022-07-19T13:04:09;4.07;;;1.88;;
53654;SDS011;39558;52.028;8.536;2022-07-19T13:06:35;5.72;;;2.80;;
53654;SDS011;39558;52.028;8.536;2022-07-19T13:09:02;3.63;;;1.63;;
53654;SDS011;39558;52.028;8.536;2022-07-19T13:11:28;3.88;;;1.60;;
53654;SDS011;39558;52.028;8.536;2022-07-19T13:13:54;1.90;;;0.98;;
53654;SDS011;39558;52.028;8.536;2022-07-19T13:16:20;2.75;;;1.13;;
53654;SDS011;39558;52.028;8.536;2022-07-19T13:18:47;3.47;;;0.90;;
53654;SDS011;39558;52.028;8.536;2022-07-19T13:21:14;5.80;;;1.25;;
53654;SDS011;39558;52.028;8.536;2022-07-19T13:23:40;2.28;;;1.20;;
53654;SDS011;39558;52.028;8.536;2022-07-19T13:26:06;3.38;;;1.27;;
53654;SDS011;39558;52.028;8.536;2022-07-19T13:28:32;5.22;;;1.40;;
53654;SDS011;39558;52.028;8.536;2022-07-19T13:31:00;2.88;;;1.20;;
53654;SDS011;39558;52.028;8.536;2022-07-19T13:33:26;1.98;;;0.85;;
53654;SDS011;39558;52.028;8.536;2022-07-19T13:35:51;3.03;;;1.30;;
53654;SDS011;39558;52.028;8.536;2022-07-19T13:38:18;2.85;;;1.33;;
53654;SDS011;39558;52.028;8.536;2022-07-19T13:40:44;3.58;;;0.98;;
53654;SDS011;39558;52.028;8.536;2022-07-19T13:43:10;1.65;;;0.98;;
53654;SDS011;39558;52.028;8.536;2022-07-19T13:45:35;4.38;;;1.05;;
53654;SDS011;39558;52.028;8.536;2022-07-19T13:48:01;6.25;;;1.23;;
53654;SDS011;39558;52.028;8.536;2022-07-19T13:50:28;2.70;;;1.15;;
53654;SDS011;39558;52.028;8.536;2022-07-19T13:52:54;1.92;;;1.10;;
53654;SDS011;39558;52.028;8.536;2022-07-19T13:55:20;3.63;;;1.23;;
53654;SDS011;39558;52.028;8.536;2022-07-19T13:57:46;4.05;;;1.10;;
53654;SDS011;39558;52.028;8.536;2022-07-19T14:00:12;3.88;;;1.17;;
53654;SDS011;39558;52.028;8.536;2022-07-19T14:02:40;2.65;;;1.00;;
53654;SDS011;39558;52.028;8.536;2022-07-19T14:05:06;2.20;;;0.98;;
53654;SDS011;39558;52.028;8.536;2022-07-19T14:07:33;1.85;;;0.80;;
53654;SDS011;39558;52.028;8.536;2022-07-19T14:09:59;2.75;;;0.93;;
53654;SDS011;39558;52.028;8.536;2022-07-19T14:12:25;4.47;;;1.83;;
53654;SDS011;39558;52.028;8.536;2022-07-19T14:14:51;2.08;;;0.90;;
53654;SDS011;39558;52.028;8.536;2022-07-19T14:17:16;3.67;;;1.10;;
53654;SDS011;39558;52.028;8.536;2022-07-19T14:19:42;2.83;;;1.02;;
53654;SDS011;39558;52.028;8.536;2022-07-19T14:22:08;2.17;;;1.20;;
53654;SDS011;39558;52.028;8.536;2022-07-19T14:24:34;4.07;;;1.10;;
53654;SDS011;39558;52.028;8.536;2022-07-19T14:27:00;2.30;;;1.00;;
53654;SDS011;39558;52.028;8.536;2022-07-19T14:29:26;3.15;;;1.50;;
53654;SDS011;39558;52.028;8.536;2022-07-19T14:31:53;4.15;;;2.05;;
53654;SDS011;39558;52.028;8.536;2022-07-19T14:34:19;6.05;;;1.30;;
53654;SDS011;39558;52.028;8.536;2022-07-19T14:36:45;3.20;;;1.27;;
53654;SDS011;39558;52.028;8.536;2022-07-19T14:39:11;3.60;;;1.40;;
53654;SDS011;39558;52.028;8.536;2022-07-19T14:41:37;3.03;;;1.38;;
53654;SDS011;39558;52.028;8.536;2022-07-19T14:44:03;3.58;;;1.63;;
53654;SDS011;39558;52.028;8.536;2022-07-19T14:46:29;3.25;;;1.35;;
53654;SDS011;39558;52.028;8.536;2022-07-19T14:48:55;2.78;;;1.40;;
53654;SDS011;39558;52.028;8.536;2022-07-19T14:51:21;3.00;;;1.48;;
53654;SDS011;39558;52.028;8.536;2022-07-19T14:53:47;3.45;;;1.35;;
53654;SDS011;39558;52.028;8.536;2022-07-19T14:56:13;4.90;;;1.45;;
53654;SDS011;39558;52.028;8.536;2022-07-19T14:58:39;4.63;;;1.70;;
53654;SDS011;39558;52.028;8.536;2022-07-19T15:01:07;3.75;;;1.40;;
53654;SDS011;39558;52.028;8.536;2022-07-19T15:03:32;1.90;;;1.10;;